Time;durP1;ratioP1;P1;durP2;ratioP2;P2;SDS_P1;SDS_P2;PMS_P1;PMS_P2;Temp;Humidity;BMP_temperature;BMP_pressure;BME280_temperature;BME280_humidity;BME280_pressure;Samples;Min_cycle;Max_cycle;Signal;HPM_P1;HPM_P2
2021/03/09 00:01:49;;;;;;;13.60;7.43;;;10.20;99.90;;;;;;5092239;28;20488;-76
2021/03/09 00:04:15;;;;;;;14.85;7.45;;;10.20;99.90;;;;;;5092079;28;20122;-75
2021/03/09 00:06:41;;;;;;;17.17;8.27;;;10.20;99.90;;;;;;5092172;28;20075;-77
2021/03/09 00:09:07;;;;;;;21.35;11.60;;;10.20;99.90;;;;;;5090911;28;20593;-77
2021/03/09 00:11:33;;;;;;;27.30;15.35;;;10.20;99.90;;;;;;5090979;28;20102;-78
2021/03/09 00:13:59;;;;;;;32.22;16.70;;;10.30;99.90;;;;;;5092083;28;20051;-76
2021/03/09 00:16:25;;;;;;;24.27;13.27;;;10.30;99.90;;;;;;5092106;28;20020;-76
2021/03/09 00:18:51;;;;;;;23.48;10.70;;;10.30;99.90;;;;;;5092039;28;20078;-75
2021/03/09 00:21:17;;;;;;;15.15;9.15;;;10.30;99.90;;;;;;5090881;28;20487;-77
2021/03/09 00:23:42;;;;;;;16.27;9.27;;;10.30;99.90;;;;;;5092061;28;20464;-76
2021/03/09 00:26:08;;;;;;;17.70;8.43;;;10.30;99.90;;;;;;5095797;28;20031;-76
2021/03/09 00:28:34;;;;;;;15.48;8.00;;;10.30;99.90;;;;;;5095644;28;20053;-75
2021/03/09 00:31:00;;;;;;;17.27;8.65;;;10.20;99.90;;;;;;5095526;28;20103;-77
2021/03/09 00:33:26;;;;;;;19.33;10.65;;;10.20;99.90;;;;;;5095613;28;20108;-77
2021/03/09 00:35:52;;;;;;;19.98;11.25;;;10.10;99.90;;;;;;5094345;28;20031;-77
2021/03/09 00:38:18;;;;;;;16.85;10.38;;;10.10;99.90;;;;;;5095532;28;20023;-76
2021/03/09 00:40:44;;;;;;;19.05;9.95;;;10.10;99.90;;;;;;5095510;28;20078;-76
2021/03/09 00:43:10;;;;;;;19.95;9.75;;;10.00;99.90;;;;;;5095345;28;20020;-77
2021/03/09 00:45:36;;;;;;;16.83;9.68;;;10.00;99.90;;;;;;5095161;28;20043;-74
2021/03/09 00:48:02;;;;;;;18.55;9.65;;;10.00;99.90;;;;;;5095216;28;20031;-75
2021/03/09 00:50:28;;;;;;;24.77;12.13;;;9.90;99.90;;;;;;5095232;28;20028;-74
2021/03/09 00:52:53;;;;;;;23.23;11.85;;;9.90;99.90;;;;;;5095349;28;20020;-75
2021/03/09 00:55:19;;;;;;;28.30;11.05;;;9.90;99.90;;;;;;5095132;28;20544;-75
2021/03/09 00:57:57;;;;;;;18.70;11.18;;;9.90;99.90;;;;;;5094845;28;20038;-75
2021/03/09 01:00:25;;;;;;;22.52;10.02;;;9.90;99.90;;;;;;5095157;28;20105;-75
2021/03/09 01:02:51;;;;;;;20.08;9.60;;;9.90;99.90;;;;;;5093743;28;20032;-75
2021/03/09 01:05:18;;;;;;;15.93;8.82;;;9.90;99.90;;;;;;5094692;28;20057;-75
2021/03/09 01:07:44;;;;;;;13.32;8.55;;;9.90;99.90;;;;;;5094792;28;20450;-76
2021/03/09 01:10:11;;;;;;;16.08;8.15;;;9.80;99.90;;;;;;5094766;28;20051;-75
2021/03/09 01:12:37;;;;;;;14.75;8.40;;;9.80;99.90;;;;;;5094726;28;20069;-75
2021/03/09 01:15:05;;;;;;;17.77;8.93;;;9.70;99.90;;;;;;5094872;28;20489;-76
2021/03/09 01:17:31;;;;;;;16.05;9.05;;;9.70;99.90;;;;;;5094843;28;20080;-76
2021/03/09 01:19:57;;;;;;;14.43;8.20;;;9.70;99.90;;;;;;5093390;28;20036;-76
2021/03/09 01:22:22;;;;;;;16.38;7.95;;;9.70;99.90;;;;;;5093403;28;20028;-77
2021/03/09 01:24:48;;;;;;;20.90;10.20;;;9.70;99.90;;;;;;5094387;28;20043;-77
2021/03/09 01:27:16;;;;;;;19.88;10.68;;;9.70;99.90;;;;;;5094485;28;20666;-76
2021/03/09 01:29:41;;;;;;;18.83;10.32;;;9.70;99.90;;;;;;5094419;28;20036;-76
2021/03/09 01:32:08;;;;;;;23.65;11.98;;;9.70;99.90;;;;;;5094446;28;20400;-75
2021/03/09 01:34:34;;;;;;;20.05;11.07;;;9.70;99.90;;;;;;5093083;28;20028;-76
2021/03/09 01:37:00;;;;;;;22.10;11.48;;;9.70;99.90;;;;;;5092574;28;20032;-75
2021/03/09 01:39:26;;;;;;;18.27;9.43;;;9.70;99.90;;;;;;5094214;28;20038;-75
2021/03/09 01:41:52;;;;;;;16.23;9.40;;;9.60;99.90;;;;;;5094183;28;20106;-75
2021/03/09 01:44:18;;;;;;;22.92;9.45;;;9.60;99.90;;;;;;5094060;28;20038;-75
2021/03/09 01:46:46;;;;;;;19.05;9.73;;;9.60;99.90;;;;;;5094317;28;20024;-75
2021/03/09 01:49:14;;;;;;;16.33;8.40;;;9.60;99.90;;;;;;5094020;28;20024;-75
2021/03/09 01:51:43;;;;;;;17.10;8.52;;;9.60;99.90;;;;;;5094045;28;20123;-76
2021/03/09 01:54:10;;;;;;;16.63;8.38;;;9.50;99.90;;;;;;5094050;28;20099;-77
2021/03/09 01:56:37;;;;;;;16.85;8.48;;;9.60;99.90;;;;;;5092643;28;20392;-76
2021/03/09 01:59:04;;;;;;;13.82;8.35;;;9.60;99.90;;;;;;5093662;28;20051;-77
2021/03/09 02:01:30;;;;;;;15.98;9.48;;;9.60;99.90;;;;;;5093783;28;20043;-74
2021/03/09 02:03:56;;;;;;;17.95;9.70;;;9.60;99.90;;;;;;5093765;28;20042;-75
2021/03/09 02:06:22;;;;;;;17.45;10.07;;;9.60;99.90;;;;;;5093871;28;20538;-74
2021/03/09 02:08:48;;;;;;;16.33;10.20;;;9.60;99.90;;;;;;5092560;28;20536;-75
2021/03/09 02:11:52;;;;;;;17.10;9.13;;;9.60;99.90;;;;;;5093640;28;20573;-75
2021/03/09 02:14:30;;;;;;;15.18;8.43;;;9.60;99.90;;;;;;5031237;28;20069;-75
2021/03/09 02:17:21;;;;;;;15.05;8.68;;;9.60;99.90;;;;;;5087278;28;20097;-75
2021/03/09 02:20:15;;;;;;;16.42;9.07;;;9.60;99.90;;;;;;5093464;28;20024;-75
2021/03/09 02:22:53;;;;;;;18.45;8.65;;;9.60;99.90;;;;;;5093383;28;20047;-75
2021/03/09 02:25:28;;;;;;;14.55;8.02;;;9.60;99.90;;;;;;5091978;28;20101;-75
2021/03/09 02:28:21;;;;;;;17.83;7.65;;;9.60;99.90;;;;;;5093311;28;20365;-75
2021/03/09 02:30:48;;;;;;;15.70;7.95;;;9.50;99.90;;;;;;5092068;28;20082;-75
2021/03/09 02:33:16;;;;;;;12.35;7.30;;;9.50;99.90;;;;;;5093231;28;20034;-76
2021/03/09 02:35:55;;;;;;;15.45;8.40;;;9.50;99.90;;;;;;5093115;28;20073;-75
2021/03/09 02:38:26;;;;;;;16.55;8.48;;;9.40;99.90;;;;;;5093131;28;20469;-75
2021/03/09 02:40:55;;;;;;;17.80;8.68;;;9.50;99.90;;;;;;5093168;28;20028;-75
2021/03/09 02:43:23;;;;;;;14.77;8.48;;;9.50;99.90;;;;;;5093062;28;20476;-75
2021/03/09 02:45:50;;;;;;;17.00;10.00;;;9.50;99.90;;;;;;5092987;28;20472;-75
2021/03/09 02:48:20;;;;;;;15.95;8.95;;;9.50;99.90;;;;;;5092127;28;20031;-76
2021/03/09 02:50:48;;;;;;;16.52;9.73;;;9.40;99.90;;;;;;5093030;28;20024;-75
2021/03/09 02:53:15;;;;;;;18.05;9.18;;;9.40;99.90;;;;;;5093031;28;20035;-75
2021/03/09 02:55:46;;;;;;;15.27;8.75;;;9.30;99.90;;;;;;5092896;28;20519;-75
2021/03/09 02:58:18;;;;;;;17.38;9.15;;;9.30;99.90;;;;;;5092710;28;20040;-75
2021/03/09 03:00:45;;;;;;;17.55;10.20;;;9.30;99.90;;;;;;5074718;28;20084;-77
2021/03/09 03:03:15;;;;;;;21.25;10.90;;;9.40;99.90;;;;;;5092798;28;20035;-75
2021/03/09 03:05:42;;;;;;;21.27;10.07;;;9.40;99.90;;;;;;5092750;28;20065;-76
2021/03/09 03:08:10;;;;;;;19.00;10.48;;;9.40;99.90;;;;;;5091388;28;20021;-77
2021/03/09 03:10:38;;;;;;;20.52;11.30;;;9.50;99.90;;;;;;5091311;28;20476;-77
2021/03/09 03:13:09;;;;;;;24.60;12.23;;;9.50;99.90;;;;;;5091520;28;20024;-77
2021/03/09 03:15:37;;;;;;;21.33;11.52;;;9.50;99.90;;;;;;5092666;28;20069;-75
2021/03/09 03:18:10;;;;;;;21.23;11.80;;;9.60;99.90;;;;;;5092617;28;20070;-75
2021/03/09 03:20:37;;;;;;;21.10;11.02;;;9.50;99.90;;;;;;5091400;28;20078;-74
2021/03/09 03:23:04;;;;;;;16.52;9.02;;;9.60;99.90;;;;;;5091269;28;20022;-74
2021/03/09 03:25:31;;;;;;;20.35;10.15;;;9.50;99.90;;;;;;5074505;28;20036;-75
2021/03/09 03:27:59;;;;;;;28.08;9.77;;;9.40;99.90;;;;;;5091259;28;20028;-74
2021/03/09 03:30:25;;;;;;;24.10;10.07;;;9.40;99.90;;;;;;5092462;28;20058;-75
2021/03/09 03:32:51;;;;;;;12.88;6.50;;;9.30;99.90;;;;;;5092461;28;20031;-75
2021/03/09 03:35:17;;;;;;;15.75;8.10;;;9.30;99.90;;;;;;5091237;28;20377;-74
2021/03/09 03:37:44;;;;;;;17.60;8.82;;;9.20;99.90;;;;;;5074280;28;20462;-75
2021/03/09 03:40:15;;;;;;;21.25;8.82;;;9.20;99.90;;;;;;5092201;28;20372;-75
2021/03/09 03:42:42;;;;;;;16.55;8.50;;;9.20;99.90;;;;;;5092410;28;20035;-75
2021/03/09 03:45:10;;;;;;;15.68;8.40;;;9.20;99.90;;;;;;5092366;28;20400;-75
2021/03/09 03:47:37;;;;;;;14.95;7.63;;;9.20;99.90;;;;;;5092591;28;20127;-78
2021/03/09 03:50:08;;;;;;;15.20;7.63;;;9.20;99.90;;;;;;5092250;28;20111;-78
2021/03/09 03:53:03;;;;;;;15.93;8.73;;;9.20;99.90;;;;;;5092338;28;20024;-78
2021/03/09 03:56:05;;;;;;;20.77;9.63;;;9.30;99.90;;;;;;5004732;28;20041;-78
2021/03/09 03:58:48;;;;;;;20.23;9.93;;;9.30;99.90;;;;;;5090939;28;20556;-74
2021/03/09 04:01:18;;;;;;;19.45;9.65;;;9.20;99.90;;;;;;5096306;28;20039;-77
2021/03/09 04:03:48;;;;;;;20.85;10.45;;;9.20;99.90;;;;;;5096189;28;20042;-78
2021/03/09 04:06:16;;;;;;;18.77;9.80;;;9.20;99.90;;;;;;5096137;28;20028;-78
2021/03/09 04:08:43;;;;;;;17.90;9.25;;;9.20;99.90;;;;;;5096042;28;20024;-77
2021/03/09 04:11:10;;;;;;;19.80;9.20;;;9.20;99.90;;;;;;5096076;28;20024;-77
2021/03/09 04:13:41;;;;;;;19.65;9.75;;;9.10;99.90;;;;;;5096061;28;20029;-77
2021/03/09 04:16:09;;;;;;;17.42;9.02;;;9.20;99.90;;;;;;5095859;28;20093;-77
2021/03/09 04:18:36;;;;;;;17.42;9.63;;;9.10;99.90;;;;;;5095873;28;20027;-77
2021/03/09 04:21:03;;;;;;;16.35;9.25;;;9.20;99.90;;;;;;5095772;28;20069;-77
2021/03/09 04:23:30;;;;;;;16.38;8.43;;;9.20;99.90;;;;;;5095748;28;20020;-77
2021/03/09 04:25:57;;;;;;;19.67;7.65;;;9.20;99.90;;;;;;5095829;28;20028;-77
2021/03/09 04:28:23;;;;;;;14.88;7.63;;;9.20;99.90;;;;;;5095953;28;20372;-77
2021/03/09 04:30:49;;;;;;;13.80;7.80;;;9.20;99.90;;;;;;5095612;28;20035;-75
2021/03/09 04:33:16;;;;;;;13.32;7.93;;;9.20;99.90;;;;;;5095692;28;20032;-75
2021/03/09 04:35:42;;;;;;;15.98;8.43;;;9.20;99.90;;;;;;5095619;28;20032;-75
2021/03/09 04:38:08;;;;;;;21.50;8.30;;;9.20;99.90;;;;;;5095323;28;20502;-75
2021/03/09 04:40:35;;;;;;;14.68;8.18;;;9.10;99.90;;;;;;5095357;28;20024;-74
2021/03/09 04:43:03;;;;;;;11.48;6.45;;;9.10;99.90;;;;;;5095431;28;20066;-75
2021/03/09 04:45:30;;;;;;;13.57;7.95;;;9.10;99.90;;;;;;5094186;28;20059;-74
2021/03/09 04:47:58;;;;;;;16.35;7.80;;;9.10;99.90;;;;;;5095218;28;20024;-75
2021/03/09 04:50:26;;;;;;;12.85;6.65;;;9.10;99.90;;;;;;5095329;28;20395;-74
2021/03/09 04:52:52;;;;;;;14.82;7.22;;;9.10;99.90;;;;;;5093890;28;20024;-77
2021/03/09 04:55:23;;;;;;;14.15;7.65;;;9.10;99.90;;;;;;5093891;28;20039;-76
2021/03/09 04:57:50;;;;;;;17.45;8.75;;;9.10;99.90;;;;;;5093596;28;20024;-77
2021/03/09 05:00:21;;;;;;;14.88;7.13;;;9.20;99.90;;;;;;5095010;28;20538;-77
2021/03/09 05:02:48;;;;;;;17.42;8.15;;;9.10;99.90;;;;;;5094980;28;20037;-77
2021/03/09 05:05:16;;;;;;;16.55;8.13;;;9.10;99.90;;;;;;5093687;28;20647;-77
2021/03/09 05:07:43;;;;;;;16.10;7.72;;;9.10;99.90;;;;;;5093746;28;20024;-78
2021/03/09 05:10:10;;;;;;;26.52;7.78;;;9.10;99.90;;;;;;5094529;28;20028;-76
2021/03/09 05:12:44;;;;;;;13.40;7.43;;;9.00;99.90;;;;;;5092977;28;20016;-77
2021/03/09 05:15:11;;;;;;;19.58;7.93;;;9.00;99.90;;;;;;5093553;28;20107;-77
2021/03/09 05:17:38;;;;;;;10.70;5.35;;;9.00;99.90;;;;;;5093433;28;20028;-75
2021/03/09 05:20:06;;;;;;;13.55;7.50;;;9.00;99.90;;;;;;5076442;28;20032;-75
2021/03/09 05:22:32;;;;;;;11.55;6.90;;;9.00;99.90;;;;;;5094632;28;20480;-77
2021/03/09 05:24:58;;;;;;;14.48;7.00;;;9.00;99.90;;;;;;5093279;28;20036;-76
2021/03/09 05:27:24;;;;;;;16.40;6.57;;;9.10;99.90;;;;;;5094679;28;20031;-75
2021/03/09 05:29:50;;;;;;;12.93;6.82;;;9.10;99.90;;;;;;5093549;28;20024;-75
2021/03/09 05:32:16;;;;;;;13.43;7.18;;;9.20;99.90;;;;;;5094449;28;20376;-75
2021/03/09 05:34:42;;;;;;;13.32;6.55;;;9.20;99.90;;;;;;5094357;28;20024;-75
2021/03/09 05:37:09;;;;;;;13.68;6.90;;;9.30;99.90;;;;;;5093152;28;20024;-77
2021/03/09 05:39:37;;;;;;;13.80;6.90;;;9.30;99.90;;;;;;5076136;28;20119;-77
2021/03/09 05:42:06;;;;;;;14.25;6.78;;;9.30;99.90;;;;;;5094194;28;20028;-76
2021/03/09 05:44:33;;;;;;;13.43;6.93;;;9.30;99.90;;;;;;5092931;28;20047;-74
2021/03/09 05:47:01;;;;;;;18.40;7.55;;;9.30;99.90;;;;;;5094486;28;20028;-74
2021/03/09 05:49:27;;;;;;;13.73;6.90;;;9.30;99.90;;;;;;5094240;28;20115;-75
2021/03/09 05:51:54;;;;;;;19.55;7.75;;;9.30;99.90;;;;;;5094053;28;20092;-75
2021/03/09 05:54:24;;;;;;;13.93;7.85;;;9.30;99.90;;;;;;5093894;28;20381;-75
2021/03/09 05:56:50;;;;;;;15.75;7.75;;;9.30;99.90;;;;;;5092623;28;20102;-74
2021/03/09 05:59:17;;;;;;;12.95;6.00;;;9.30;99.90;;;;;;5092522;28;20044;-74
2021/03/09 06:01:44;;;;;;;13.85;6.85;;;9.30;99.90;;;;;;5092631;28;20038;-74
2021/03/09 06:04:10;;;;;;;20.70;6.85;;;9.40;99.90;;;;;;5093818;28;20086;-74
2021/03/09 06:06:36;;;;;;;20.35;8.32;;;9.40;99.90;;;;;;5093830;28;20020;-74
2021/03/09 06:09:23;;;;;;;24.40;7.60;;;9.40;99.90;;;;;;5093661;28;20084;-75
2021/03/09 06:12:13;;;;;;;20.23;7.65;;;9.50;99.90;;;;;;5093462;28;20095;-74
2021/03/09 06:14:40;;;;;;;18.45;7.20;;;9.60;99.90;;;;;;5092450;28;20032;-75
2021/03/09 06:17:10;;;;;;;15.05;7.65;;;9.60;99.90;;;;;;5093552;28;20028;-74
2021/03/09 06:19:47;;;;;;;14.23;7.07;;;9.70;99.90;;;;;;5093452;28;20028;-74
2021/03/09 06:22:15;;;;;;;15.90;6.78;;;9.80;99.90;;;;;;5092126;28;20024;-75
2021/03/09 06:24:41;;;;;;;12.75;7.13;;;9.90;99.90;;;;;;5093317;28;20102;-75
2021/03/09 06:27:28;;;;;;;12.45;6.63;;;10.00;99.90;;;;;;5092024;28;20025;-74
2021/03/09 06:29:56;;;;;;;11.32;5.88;;;10.10;99.90;;;;;;5093189;28;20032;-75
2021/03/09 06:32:23;;;;;;;14.80;6.65;;;10.20;99.90;;;;;;5093587;28;20150;-74
2021/03/09 06:34:51;;;;;;;15.25;6.80;;;10.30;99.90;;;;;;5092202;28;20157;-74
2021/03/09 06:37:23;;;;;;;10.98;6.10;;;10.40;99.90;;;;;;5093157;28;20553;-74
2021/03/09 06:39:58;;;;;;;14.88;6.70;;;10.50;99.90;;;;;;5093226;28;20032;-74
2021/03/09 06:42:36;;;;;;;14.25;6.20;;;10.60;99.90;;;;;;5093173;28;20020;-74
2021/03/09 06:45:04;;;;;;;19.80;7.20;;;10.70;99.90;;;;;;5092933;28;20047;-75
2021/03/09 06:47:58;;;;;;;13.93;6.93;;;10.80;99.90;;;;;;5092887;28;20035;-76
2021/03/09 06:50:34;;;;;;;14.65;7.18;;;10.90;99.90;;;;;;5091274;28;20483;-76
2021/03/09 06:53:04;;;;;;;15.82;7.40;;;11.00;99.90;;;;;;5091716;28;20035;-75
2021/03/09 06:55:32;;;;;;;12.88;7.15;;;11.10;99.90;;;;;;5091755;28;20043;-75
2021/03/09 06:58:04;;;;;;;12.30;6.13;;;11.20;99.90;;;;;;5091324;28;20036;-76
2021/03/09 07:00:31;;;;;;;13.32;6.00;;;11.30;99.90;;;;;;5093006;28;20039;-75
2021/03/09 07:02:56;;;;;;;11.13;5.50;;;11.40;99.90;;;;;;5092703;28;20028;-76
2021/03/09 07:05:22;;;;;;;9.40;4.63;;;11.40;99.90;;;;;;5092703;28;20036;-77
2021/03/09 07:07:48;;;;;;;14.30;6.10;;;11.50;99.90;;;;;;5092724;28;20028;-76
2021/03/09 07:10:19;;;;;;;9.25;5.55;;;11.60;99.90;;;;;;5092649;28;20262;-77
2021/03/09 07:12:49;;;;;;;9.75;4.85;;;11.70;99.90;;;;;;5092690;28;20034;-76
2021/03/09 07:15:18;;;;;;;9.82;5.82;;;11.70;99.90;;;;;;5092579;28;20389;-77
2021/03/09 07:17:47;;;;;;;11.65;6.30;;;11.80;99.90;;;;;;5092540;28;20032;-78
2021/03/09 07:20:15;;;;;;;10.75;5.95;;;11.90;99.90;;;;;;5092668;28;20107;-76
2021/03/09 07:22:42;;;;;;;10.85;5.78;;;12.00;99.90;;;;;;5092809;28;20032;-76
2021/03/09 07:25:16;;;;;;;10.00;5.13;;;12.00;99.90;;;;;;5092486;28;20064;-77
2021/03/09 07:28:08;;;;;;;11.13;5.70;;;12.10;99.90;;;;;;5092524;28;20056;-77
2021/03/09 07:30:39;;;;;;;9.60;4.63;;;12.10;99.90;;;;;;5092486;28;20024;-76
2021/03/09 07:33:06;;;;;;;15.02;5.47;;;12.20;99.90;;;;;;5092347;28;20020;-78
2021/03/09 07:35:33;;;;;;;10.38;5.13;;;12.30;99.90;;;;;;5094609;28;20055;-78
2021/03/09 07:37:59;;;;;;;9.18;4.75;;;12.40;99.90;;;;;;5095598;28;20551;-77
2021/03/09 07:40:27;;;;;;;12.27;5.00;;;12.40;99.90;;;;;;5096718;28;20446;-78
2021/03/09 07:42:55;;;;;;;11.45;4.40;;;12.60;99.90;;;;;;5095277;28;20028;-78
2021/03/09 07:45:24;;;;;;;9.23;4.75;;;12.60;99.90;;;;;;5096457;28;20055;-78
2021/03/09 07:47:54;;;;;;;9.02;4.70;;;12.60;99.90;;;;;;5096453;28;20016;-78
2021/03/09 07:50:22;;;;;;;19.73;6.00;;;12.70;99.90;;;;;;5096189;28;20089;-79
2021/03/09 07:52:59;;;;;;;12.52;5.38;;;12.70;99.90;;;;;;5094128;28;20043;-78
2021/03/09 07:55:26;;;;;;;11.00;4.53;;;12.80;99.90;;;;;;5094603;28;20026;-79
2021/03/09 07:58:17;;;;;;;13.82;5.30;;;12.90;99.90;;;;;;5094252;28;20032;-78
2021/03/09 08:00:52;;;;;;;16.25;7.07;;;13.00;99.90;;;;;;5075885;28;20392;-79
2021/03/09 08:03:26;;;;;;;19.50;9.40;;;13.10;99.90;;;;;;5075800;28;20032;-78
2021/03/09 08:06:09;;;;;;;16.10;8.00;;;13.20;99.90;;;;;;5093756;28;20039;-78
2021/03/09 08:08:50;;;;;;;13.75;6.57;;;13.20;99.90;;;;;;5095879;28;20035;-78
2021/03/09 08:11:19;;;;;;;11.23;5.05;;;13.30;99.90;;;;;;5095955;28;20466;-79
2021/03/09 08:13:47;;;;;;;10.80;5.50;;;13.30;99.90;;;;;;5094650;28;20430;-77
2021/03/09 08:16:25;;;;;;;10.90;5.13;;;13.40;99.90;;;;;;5093714;28;20028;-78
2021/03/09 08:18:52;;;;;;;7.85;4.20;;;13.50;99.90;;;;;;5079236;28;20042;-79
2021/03/09 08:21:20;;;;;;;9.45;4.85;;;13.40;99.90;;;;;;5095520;28;20031;-78
2021/03/09 08:23:45;;;;;;;9.02;5.07;;;13.50;99.90;;;;;;5095733;28;20063;-78
2021/03/09 08:26:14;;;;;;;8.77;4.33;;;13.60;99.90;;;;;;5095648;28;20434;-79
2021/03/09 08:28:43;;;;;;;12.60;3.83;;;13.70;99.90;;;;;;5095670;28;20020;-79
2021/03/09 08:31:11;;;;;;;7.25;4.05;;;13.70;99.90;;;;;;5095729;28;20032;-78
2021/03/09 08:33:54;;;;;;;9.45;3.97;;;13.80;99.90;;;;;;5095352;28;20373;-78
2021/03/09 08:36:19;;;;;;;8.05;3.72;;;13.90;99.90;;;;;;5095173;28;20449;-78
2021/03/09 08:39:04;;;;;;;10.73;4.20;;;14.00;99.90;;;;;;5094753;28;20056;-79
2021/03/09 08:41:39;;;;;;;7.80;4.18;;;14.10;99.90;;;;;;5095432;28;20774;-78
2021/03/09 08:44:25;;;;;;;5.60;3.38;;;14.10;99.90;;;;;;5095272;28;20065;-78
2021/03/09 08:47:02;;;;;;;8.82;3.38;;;14.10;99.90;;;;;;5092997;28;20104;-77
2021/03/09 08:49:51;;;;;;;10.15;3.58;;;14.20;99.90;;;;;;5080228;28;20032;-78
2021/03/09 08:52:17;;;;;;;8.57;4.05;;;14.40;99.90;;;;;;5094718;28;20028;-78
2021/03/09 08:54:45;;;;;;;10.53;3.97;;;14.50;99.90;;;;;;5094598;28;20401;-76
2021/03/09 08:57:14;;;;;;;10.73;3.88;;;14.60;99.90;;;;;;5095044;28;20089;-77
2021/03/09 08:59:42;;;;;;;9.40;4.78;;;14.70;99.90;;;;;;5093764;28;20052;-76
2021/03/09 09:02:08;;;;;;;6.05;3.30;;;14.70;99.90;;;;;;5093391;28;20031;-76
2021/03/09 09:04:35;;;;;;;8.27;3.55;;;14.80;99.90;;;;;;5095046;28;20050;-76
2021/03/09 09:07:21;;;;;;;9.27;3.75;;;15.00;99.90;;;;;;5094950;28;20020;-77
2021/03/09 09:09:47;;;;;;;7.65;3.50;;;15.10;99.90;;;;;;5094890;28;20550;-75
2021/03/09 09:12:49;;;;;;;9.02;3.83;;;15.20;99.90;;;;;;5094764;28;20024;-77
2021/03/09 09:15:22;;;;;;;13.63;4.10;;;15.30;99.90;;;;;;5012669;28;20037;-77
2021/03/09 09:17:52;;;;;;;11.07;4.80;;;15.20;99.90;;;;;;5080711;28;20032;-76
2021/03/09 09:20:22;;;;;;;7.47;4.47;;;15.20;99.90;;;;;;5093851;28;20107;-78
2021/03/09 09:22:50;;;;;;;7.93;3.95;;;15.30;99.90;;;;;;5093255;28;20028;-78
2021/03/09 09:25:17;;;;;;;9.15;4.05;;;15.50;99.90;;;;;;5089925;28;20085;-79
2021/03/09 09:27:52;;;;;;;9.55;4.65;;;15.60;99.90;;;;;;5076025;28;20028;-79
2021/03/09 09:30:24;;;;;;;9.80;4.90;;;15.70;99.90;;;;;;5093127;28;20070;-79
2021/03/09 09:32:52;;;;;;;10.52;4.10;;;15.90;99.90;;;;;;5094189;28;20024;-79
2021/03/09 09:35:20;;;;;;;10.40;4.75;;;16.00;99.90;;;;;;5094341;28;20028;-79
2021/03/09 09:37:48;;;;;;;10.77;4.72;;;16.20;99.90;;;;;;5094245;28;20035;-79
2021/03/09 09:40:15;;;;;;;10.18;4.68;;;16.20;99.90;;;;;;5094193;28;20012;-79
2021/03/09 09:42:41;;;;;;;8.82;4.32;;;16.20;99.90;;;;;;5094265;28;20035;-79
2021/03/09 09:45:08;;;;;;;8.60;4.65;;;16.10;99.90;;;;;;5094067;28;20035;-79
2021/03/09 09:47:35;;;;;;;10.73;4.68;;;16.20;99.90;;;;;;5094084;28;20028;-79
2021/03/09 09:50:03;;;;;;;6.72;4.00;;;16.30;99.90;;;;;;5094081;28;20557;-79
2021/03/09 09:52:29;;;;;;;9.48;4.03;;;16.40;99.90;;;;;;5094012;28;20027;-79
2021/03/09 09:54:55;;;;;;;9.50;4.80;;;16.60;99.90;;;;;;5094158;28;20028;-78
2021/03/09 09:57:23;;;;;;;8.05;4.05;;;16.60;99.90;;;;;;5091887;28;20416;-78
2021/03/09 09:59:49;;;;;;;9.32;3.85;;;16.70;99.90;;;;;;5093804;28;20133;-78
2021/03/09 10:02:19;;;;;;;10.90;4.00;;;16.80;99.90;;;;;;5093822;28;20120;-78
2021/03/09 10:04:45;;;;;;;11.60;4.70;;;16.80;99.90;;;;;;5093726;28;20032;-78
2021/03/09 10:07:20;;;;;;;6.95;4.00;;;16.70;99.90;;;;;;5093713;28;20077;-78
2021/03/09 10:10:04;;;;;;;7.18;3.47;;;16.70;99.90;;;;;;5093601;28;20109;-78
2021/03/09 10:12:38;;;;;;;18.30;4.72;;;16.90;99.90;;;;;;5093846;28;20056;-78
2021/03/09 10:15:08;;;;;;;8.20;4.78;;;17.10;99.90;;;;;;5092565;28;20032;-78
2021/03/09 10:17:35;;;;;;;8.43;4.07;;;17.30;99.90;;;;;;5092506;28;20020;-79
2021/03/09 10:20:04;;;;;;;6.65;4.30;;;17.60;99.90;;;;;;5093539;28;20028;-77
2021/03/09 10:22:30;;;;;;;8.50;4.00;;;17.80;99.90;;;;;;5093527;28;20028;-78
2021/03/09 10:25:22;;;;;;;9.73;4.80;;;17.90;99.70;;;;;;5093331;28;20036;-78
2021/03/09 10:28:03;;;;;;;12.25;5.00;;;18.00;99.60;;;;;;5089530;28;20050;-78
2021/03/09 10:30:40;;;;;;;11.63;5.70;;;18.00;99.60;;;;;;5093336;28;20388;-77
2021/03/09 10:33:12;;;;;;;9.80;4.85;;;18.20;99.70;;;;;;5093221;28;20032;-79
2021/03/09 10:36:07;;;;;;;7.47;3.90;;;18.50;99.80;;;;;;5093245;28;20060;-79
2021/03/09 10:38:34;;;;;;;10.23;4.60;;;18.60;99.20;;;;;;5093271;28;20028;-76
2021/03/09 10:41:00;;;;;;;6.57;4.68;;;18.70;98.70;;;;;;5093145;28;20025;-79
2021/03/09 10:43:45;;;;;;;10.90;4.63;;;18.80;99.00;;;;;;5093127;28;20051;-78
2021/03/09 10:46:13;;;;;;;8.45;4.32;;;18.90;98.50;;;;;;5093080;28;20036;-77
2021/03/09 10:48:40;;;;;;;9.32;5.05;;;19.10;98.10;;;;;;5091891;28;20035;-75
2021/03/09 10:51:20;;;;;;;9.27;4.07;;;19.10;97.80;;;;;;5092988;28;20024;-78
2021/03/09 10:53:46;;;;;;;7.07;3.90;;;19.20;96.80;;;;;;5092935;28;20103;-77
2021/03/09 10:56:13;;;;;;;9.57;4.72;;;19.20;96.90;;;;;;5092861;28;20032;-76
2021/03/09 10:58:40;;;;;;;7.60;4.03;;;19.30;96.70;;;;;;5092704;28;20064;-78
2021/03/09 11:01:06;;;;;;;9.75;4.75;;;19.50;96.50;;;;;;5092828;28;20037;-76
2021/03/09 11:03:32;;;;;;;7.03;4.28;;;19.10;96.50;;;;;;5092839;28;20043;-78
2021/03/09 11:05:58;;;;;;;9.13;4.07;;;19.30;95.90;;;;;;5092797;28;20115;-78
2021/03/09 11:08:24;;;;;;;14.80;4.57;;;19.40;95.60;;;;;;5092366;28;20432;-79
2021/03/09 11:10:52;;;;;;;7.70;4.65;;;19.40;95.60;;;;;;5092581;28;20284;-79
2021/03/09 11:13:18;;;;;;;15.00;5.05;;;19.30;96.00;;;;;;5092662;28;20024;-79
2021/03/09 11:15:45;;;;;;;8.80;4.30;;;19.10;95.80;;;;;;5092671;28;20030;-79
2021/03/09 11:18:12;;;;;;;8.98;4.45;;;19.20;95.60;;;;;;5092587;28;20115;-79
2021/03/09 11:20:39;;;;;;;10.40;4.32;;;19.20;95.30;;;;;;5092633;28;20028;-78
2021/03/09 11:23:06;;;;;;;8.90;4.05;;;19.10;95.30;;;;;;5092687;28;20110;-79
2021/03/09 11:25:34;;;;;;;9.48;3.97;;;19.00;95.50;;;;;;5092595;28;20562;-79
2021/03/09 11:28:02;;;;;;;10.38;4.68;;;18.70;96.20;;;;;;5092442;28;20392;-78
2021/03/09 11:30:28;;;;;;;6.53;4.43;;;18.60;96.10;;;;;;5091238;28;20530;-77
2021/03/09 11:32:54;;;;;;;12.80;3.97;;;18.60;96.10;;;;;;5092424;28;20049;-78
2021/03/09 11:35:20;;;;;;;7.60;4.00;;;18.80;96.40;;;;;;5092493;28;20036;-79
2021/03/09 11:37:46;;;;;;;8.10;4.38;;;18.80;96.20;;;;;;5092510;28;20162;-80
2021/03/09 11:40:12;;;;;;;9.98;4.07;;;19.10;95.50;;;;;;5092446;28;20028;-79
2021/03/09 11:42:38;;;;;;;12.00;4.13;;;19.30;95.70;;;;;;5091157;28;20358;-78
2021/03/09 11:45:05;;;;;;;11.03;4.10;;;19.60;94.80;;;;;;5092311;28;20043;-78
2021/03/09 11:47:31;;;;;;;9.10;4.68;;;19.70;94.50;;;;;;5092361;28;20020;-79
2021/03/09 11:49:57;;;;;;;6.80;4.18;;;19.80;94.30;;;;;;5092232;28;20032;-79
2021/03/09 11:52:23;;;;;;;9.93;4.45;;;19.70;94.70;;;;;;5092221;28;20362;-79
2021/03/09 11:54:49;;;;;;;9.97;3.97;;;19.50;94.80;;;;;;5092364;28;20477;-79
2021/03/09 11:57:15;;;;;;;10.07;4.00;;;19.40;94.60;;;;;;5092180;28;20273;-76
2021/03/09 11:59:41;;;;;;;8.03;4.77;;;19.20;93.80;;;;;;5092071;28;20364;-79
2021/03/09 12:02:07;;;;;;;7.32;3.92;;;18.80;93.70;;;;;;5092271;28;20025;-77
2021/03/09 12:04:35;;;;;;;7.65;4.45;;;18.80;94.60;;;;;;5090876;28;20046;-77
2021/03/09 12:07:01;;;;;;;5.95;3.65;;;19.10;94.60;;;;;;5090873;28;20388;-78
2021/03/09 12:09:27;;;;;;;10.30;4.00;;;19.60;94.20;;;;;;5092138;28;20430;-79
2021/03/09 12:11:53;;;;;;;9.23;4.13;;;20.10;93.40;;;;;;5092253;28;20020;-79
2021/03/09 12:14:19;;;;;;;7.73;3.77;;;20.50;92.30;;;;;;5091013;28;20118;-78
2021/03/09 12:16:44;;;;;;;7.87;4.13;;;20.60;91.60;;;;;;5092116;28;20668;-77
2021/03/09 12:19:10;;;;;;;8.33;3.17;;;20.00;91.40;;;;;;5091995;28;20262;-77
2021/03/09 12:21:36;;;;;;;6.63;3.23;;;20.30;91.20;;;;;;5095142;28;20031;-79
2021/03/09 12:24:02;;;;;;;9.73;3.83;;;20.40;91.90;;;;;;5095718;28;20797;-78
2021/03/09 12:26:28;;;;;;;8.77;3.75;;;20.50;91.40;;;;;;5095869;28;20366;-78
2021/03/09 12:28:54;;;;;;;8.55;3.55;;;20.60;91.30;;;;;;5095667;28;20553;-79
2021/03/09 12:31:20;;;;;;;10.60;3.80;;;20.60;91.80;;;;;;5095622;28;20032;-79
2021/03/09 12:33:46;;;;;;;18.88;9.18;;;20.60;91.60;;;;;;5095610;28;20277;-78
2021/03/09 12:36:12;;;;;;;6.73;3.53;;;20.80;91.30;;;;;;5095520;28;20032;-79
2021/03/09 12:38:38;;;;;;;13.05;5.20;;;20.90;90.60;;;;;;5095651;28;20258;-79
2021/03/09 12:41:04;;;;;;;5.15;3.08;;;21.00;90.40;;;;;;5095543;28;20051;-79
2021/03/09 12:43:30;;;;;;;6.70;3.40;;;20.70;89.70;;;;;;5095444;28;20372;-79
2021/03/09 12:45:56;;;;;;;15.73;4.50;;;20.90;89.80;;;;;;5095184;28;20032;-79
2021/03/09 12:48:22;;;;;;;9.00;3.10;;;21.00;89.70;;;;;;5095331;28;20262;-78
2021/03/09 12:50:48;;;;;;;8.50;4.40;;;21.20;88.60;;;;;;5095236;28;20038;-79
2021/03/09 12:53:14;;;;;;;8.17;3.50;;;21.20;89.30;;;;;;5095362;28;20341;-79
2021/03/09 12:55:40;;;;;;;6.45;3.35;;;21.00;90.00;;;;;;5095018;28;20069;-77